createdAt,value
2023-01-08T20:14:22.865Z,7.35
2023-01-08T20:17:08.727Z,7.35
2023-01-08T20:19:54.441Z,7.33
2023-01-08T20:22:39.879Z,7.35
2023-01-08T20:25:25.706Z,7.34
2023-01-08T20:28:11.115Z,7.32
2023-01-08T20:30:56.470Z,7.30
2023-01-08T20:33:42.425Z,7.31
2023-01-08T20:36:31.310Z,7.31
2023-01-08T20:39:18.268Z,7.30
2023-01-08T20:42:05.125Z,7.30
2023-01-08T20:44:50.561Z,7.33
2023-01-08T20:47:36.105Z,7.36
2023-01-08T20:50:21.423Z,7.39
2023-01-08T20:53:06.710Z,7.41
2023-01-08T20:55:52.220Z,7.43
2023-01-08T20:58:39.842Z,7.49
2023-01-08T21:01:28.235Z,7.49
2023-01-08T21:04:13.615Z,7.54
2023-01-08T21:06:59.150Z,7.56
2023-01-08T21:09:44.374Z,7.54
2023-01-08T21:12:29.455Z,7.50
2023-01-08T21:15:14.691Z,7.52
2023-01-08T21:17:59.876Z,7.49
2023-01-08T21:20:45.265Z,7.52
2023-01-08T21:23:33.039Z,7.54
2023-01-08T21:26:18.403Z,7.54
2023-01-08T21:29:06.393Z,7.54
2023-01-08T21:31:52.086Z,7.54
2023-01-08T21:34:37.434Z,7.54
2023-01-08T21:37:22.684Z,7.55
2023-01-08T21:40:08.700Z,7.55
2023-01-08T21:43:12.247Z,7.58
2023-01-08T21:46:01.093Z,7.58
2023-01-08T21:48:51.500Z,7.58
2023-01-08T21:51:55.336Z,7.62
2023-01-08T21:54:40.682Z,7.64
2023-01-08T21:57:27.860Z,7.66
2023-01-08T22:00:14.615Z,7.64
2023-01-08T22:03:00.288Z,7.66
2023-01-08T22:05:46.051Z,7.64
2023-01-08T22:08:32.453Z,7.66
2023-01-08T22:11:18.330Z,7.60
2023-01-08T22:14:03.605Z,7.56
2023-01-08T22:16:48.855Z,7.55
2023-01-08T22:19:37.112Z,7.55
2023-01-08T22:22:22.631Z,7.57
2023-01-08T22:25:09.128Z,7.59
2023-01-08T22:27:56.130Z,7.57
2023-01-08T22:30:41.469Z,7.59
2023-01-08T22:33:26.856Z,7.61
2023-01-08T22:36:14.339Z,7.58
2023-01-08T22:38:59.820Z,7.53
2023-01-08T22:41:45.094Z,7.47
2023-01-08T22:44:30.733Z,7.42
2023-01-08T22:47:15.956Z,7.36
2023-01-08T22:50:01.523Z,7.36
2023-01-08T22:52:46.679Z,7.35
2023-01-08T22:55:32.215Z,7.37
2023-01-08T22:58:17.860Z,7.36
2023-01-08T23:01:03.428Z,7.34
2023-01-08T23:03:50.115Z,7.34
2023-01-08T23:06:35.789Z,7.30
2023-01-08T23:09:21.028Z,7.27
2023-01-08T23:12:06.482Z,7.23
2023-01-08T23:14:51.674Z,7.18
2023-01-08T23:17:47.756Z,7.10
2023-01-08T23:20:36.863Z,7.07
2023-01-08T23:23:22.443Z,7.00
2023-01-08T23:26:11.619Z,6.96
2023-01-08T23:28:58.025Z,6.90
2023-01-08T23:31:44.184Z,6.86
2023-01-08T23:34:29.576Z,6.84
2023-01-08T23:37:15.067Z,6.80
2023-01-08T23:40:00.208Z,6.80
2023-01-08T23:42:45.525Z,6.80
2023-01-08T23:45:30.894Z,6.76
2023-01-08T23:48:16.791Z,6.70
2023-01-08T23:51:02.150Z,6.62
2023-01-08T23:53:47.593Z,6.57
2023-01-08T23:56:32.958Z,6.52
2023-01-08T23:59:18.664Z,6.48
